Time;durP1;ratioP1;P1;durP2;ratioP2;P2;SDS_P1;SDS_P2;PMS_P1;PMS_P2;Temp;Humidity;BMP_temperature;BMP_pressure;BME280_temperature;BME280_humidity;BME280_pressure;Samples;Min_cycle;Max_cycle;Signal;HPM_P1;HPM_P2
2023/06/29 00:01:04;;;;;;;40.42;27.00;;;18.70;29.20;;;;;;5049840;28;20409;-70
2023/06/29 00:03:33;;;;;;;37.83;26.00;;;18.70;29.30;;;;;;5050177;28;20437;-69
2023/06/29 00:06:00;;;;;;;38.83;26.17;;;18.70;29.50;;;;;;5049970;28;20414;-69
2023/06/29 00:08:27;;;;;;;40.50;27.08;;;18.80;29.70;;;;;;5067504;28;20461;-69
2023/06/29 00:10:54;;;;;;;44.10;27.55;;;18.70;29.80;;;;;;5038966;28;20435;-69
2023/06/29 00:13:20;;;;;;;39.75;26.65;;;18.70;29.80;;;;;;5036431;28;20535;-70
2023/06/29 00:15:46;;;;;;;38.85;27.10;;;18.70;30.00;;;;;;5030046;28;20447;-70
2023/06/29 00:18:15;;;;;;;41.53;27.10;;;18.70;30.30;;;;;;5039316;28;20408;-70
2023/06/29 00:20:42;;;;;;;39.30;26.90;;;18.70;30.40;;;;;;5048907;28;20414;-70
2023/06/29 00:23:08;;;;;;;39.08;27.13;;;18.60;31.00;;;;;;5020394;28;20405;-70
2023/06/29 00:25:34;;;;;;;42.53;27.80;;;18.70;32.30;;;;;;5043971;28;20424;-70
2023/06/29 00:28:00;;;;;;;41.80;27.67;;;18.60;33.00;;;;;;5067654;28;20431;-70
2023/06/29 00:30:26;;;;;;;40.85;28.25;;;18.70;33.90;;;;;;5048103;28;20419;-69
2023/06/29 00:32:51;;;;;;;47.30;29.30;;;18.70;34.00;;;;;;5038096;28;20445;-70
2023/06/29 00:35:17;;;;;;;44.22;28.58;;;18.70;34.20;;;;;;5047399;28;20419;-69
2023/06/29 00:37:42;;;;;;;46.43;28.67;;;18.60;34.50;;;;;;5066843;28;20407;-69
2023/06/29 00:40:09;;;;;;;44.35;29.35;;;18.70;35.60;;;;;;5049693;28;20411;-69
2023/06/29 00:42:38;;;;;;;41.83;29.35;;;18.60;36.00;;;;;;5068220;28;20469;-70
2023/06/29 00:45:04;;;;;;;45.38;30.08;;;18.70;36.20;;;;;;5046090;28;20409;-70
2023/06/29 00:47:31;;;;;;;45.55;29.60;;;18.70;36.70;;;;;;5050549;28;20408;-69
2023/06/29 00:49:57;;;;;;;47.13;29.70;;;18.70;37.20;;;;;;5047631;28;20417;-70
2023/06/29 00:52:26;;;;;;;45.50;30.33;;;18.70;37.60;;;;;;5046960;28;20413;-69
2023/06/29 00:54:55;;;;;;;43.63;29.83;;;18.70;37.70;;;;;;5047280;28;20415;-69
2023/06/29 00:57:20;;;;;;;44.33;29.43;;;18.70;37.70;;;;;;5050290;28;20407;-70
2023/06/29 00:59:46;;;;;;;43.08;29.42;;;18.60;37.80;;;;;;5037666;28;20413;-69
2023/06/29 01:02:14;;;;;;;47.33;29.77;;;18.60;38.10;;;;;;5050417;28;20411;-70
2023/06/29 01:04:40;;;;;;;46.97;30.10;;;18.60;38.10;;;;;;5033114;28;20400;-70
2023/06/29 01:07:34;;;;;;;43.97;29.85;;;18.70;38.20;;;;;;5046478;28;20424;-70
2023/06/29 01:10:00;;;;;;;44.55;29.25;;;18.70;38.70;;;;;;5035399;28;20508;-70
2023/06/29 01:12:26;;;;;;;45.70;29.25;;;18.60;39.10;;;;;;5044711;28;20821;-68
2023/06/29 01:14:54;;;;;;;44.78;29.38;;;18.60;39.30;;;;;;5046000;28;20484;-68
2023/06/29 01:17:23;;;;;;;43.38;29.48;;;18.70;39.50;;;;;;5036220;28;20413;-69
2023/06/29 01:19:51;;;;;;;48.97;29.50;;;18.60;39.50;;;;;;5040370;28;20430;-69
2023/06/29 01:22:41;;;;;;;47.08;30.48;;;18.60;39.40;;;;;;5041723;28;20409;-69
2023/06/29 01:25:08;;;;;;;44.30;29.10;;;18.60;39.50;;;;;;5048777;28;20422;-69
2023/06/29 01:27:34;;;;;;;43.88;29.33;;;18.60;39.70;;;;;;5033438;28;20416;-70
2023/06/29 01:30:01;;;;;;;42.92;28.92;;;18.60;40.10;;;;;;5053290;28;20923;-69
2023/06/29 01:32:33;;;;;;;45.38;29.58;;;18.60;40.50;;;;;;5037621;28;20413;-69
2023/06/29 01:35:00;;;;;;;44.78;29.75;;;18.60;40.70;;;;;;5046881;28;20416;-69
2023/06/29 01:37:29;;;;;;;47.90;29.92;;;18.60;40.80;;;;;;5032788;28;20420;-69
2023/06/29 01:40:06;;;;;;;48.00;30.35;;;18.60;41.00;;;;;;5049178;28;20419;-69
2023/06/29 01:42:33;;;;;;;49.97;31.75;;;18.50;41.60;;;;;;5047122;28;20811;-69
2023/06/29 01:45:01;;;;;;;47.17;31.37;;;18.50;41.70;;;;;;5028329;28;20412;-69
2023/06/29 01:47:28;;;;;;;46.33;30.58;;;18.60;41.80;;;;;;5042292;28;20426;-69
2023/06/29 01:49:54;;;;;;;48.80;31.15;;;18.50;41.70;;;;;;5049595;28;20415;-69
2023/06/29 01:52:20;;;;;;;47.95;30.95;;;18.50;42.10;;;;;;5045676;28;20480;-69
2023/06/29 01:54:45;;;;;;;47.00;30.80;;;18.50;42.40;;;;;;5067757;28;20396;-69
2023/06/29 01:57:12;;;;;;;47.85;30.52;;;18.50;42.60;;;;;;5037420;28;20405;-69
2023/06/29 01:59:38;;;;;;;46.33;31.40;;;18.50;43.30;;;;;;5050091;28;20404;-69
2023/06/29 02:02:05;;;;;;;55.10;33.17;;;18.50;43.50;;;;;;5027152;28;20421;-69
2023/06/29 02:04:30;;;;;;;52.77;33.03;;;18.50;43.90;;;;;;5038276;28;20468;-69
2023/06/29 02:06:56;;;;;;;50.78;32.55;;;18.50;44.60;;;;;;5031521;28;20465;-69
2023/06/29 02:09:22;;;;;;;50.40;33.70;;;18.50;45.00;;;;;;5046504;28;20508;-69
2023/06/29 02:11:47;;;;;;;54.47;34.10;;;18.50;45.20;;;;;;5065478;28;20940;-69
2023/06/29 02:14:13;;;;;;;49.80;32.47;;;18.50;45.30;;;;;;5045942;28;20445;-69
2023/06/29 02:16:38;;;;;;;47.28;33.13;;;18.50;45.70;;;;;;5040521;28;20405;-69
2023/06/29 02:19:05;;;;;;;49.63;32.17;;;18.50;45.70;;;;;;5040784;28;20414;-69
2023/06/29 02:21:30;;;;;;;53.60;33.97;;;18.50;45.90;;;;;;5046338;28;20413;-69
2023/06/29 02:23:56;;;;;;;51.07;33.70;;;18.50;46.10;;;;;;5059283;28;20403;-69
2023/06/29 02:26:25;;;;;;;52.40;33.55;;;18.50;46.20;;;;;;5045510;28;20444;-69
2023/06/29 02:28:51;;;;;;;49.58;33.08;;;18.50;46.10;;;;;;5041069;28;20488;-70
2023/06/29 02:31:17;;;;;;;52.67;33.22;;;18.50;46.10;;;;;;5047561;28;20428;-69
2023/06/29 02:33:44;;;;;;;48.95;33.13;;;18.60;46.30;;;;;;5044388;28;20431;-69
2023/06/29 02:36:09;;;;;;;48.55;31.95;;;18.50;46.30;;;;;;5049309;28;20416;-69
2023/06/29 02:38:35;;;;;;;48.53;31.47;;;18.50;46.30;;;;;;5062579;28;20403;-69
2023/06/29 02:41:01;;;;;;;49.75;32.78;;;18.50;46.00;;;;;;5049512;28;20504;-69
2023/06/29 02:43:26;;;;;;;49.03;31.87;;;18.50;46.20;;;;;;5062584;28;20403;-69
2023/06/29 02:45:52;;;;;;;48.67;32.30;;;18.50;46.20;;;;;;5049081;28;20436;-69
2023/06/29 02:48:17;;;;;;;48.42;32.30;;;18.50;46.10;;;;;;5062169;28;20400;-69
2023/06/29 02:50:43;;;;;;;48.10;32.50;;;18.50;46.00;;;;;;5070531;28;20426;-69
2023/06/29 02:53:11;;;;;;;50.00;32.08;;;18.50;46.00;;;;;;5052643;28;20925;-69
2023/06/29 02:55:37;;;;;;;52.97;32.28;;;18.50;45.80;;;;;;5049499;28;20428;-69
2023/06/29 02:58:03;;;;;;;51.20;32.67;;;18.50;45.70;;;;;;5049386;28;20405;-70
2023/06/29 03:00:28;;;;;;;51.83;31.70;;;18.50;45.80;;;;;;5068719;28;20407;-70
2023/06/29 03:02:54;;;;;;;48.53;32.23;;;18.50;45.90;;;;;;5070688;28;20913;-69
2023/06/29 03:05:19;;;;;;;49.00;31.43;;;18.50;45.90;;;;;;5040362;28;20405;-69
2023/06/29 03:07:45;;;;;;;47.22;32.08;;;18.50;45.90;;;;;;5049075;28;20910;-69
2023/06/29 03:10:11;;;;;;;47.87;31.53;;;18.50;45.90;;;;;;5050606;28;20758;-69
2023/06/29 03:12:36;;;;;;;46.42;31.15;;;18.50;46.00;;;;;;5070021;28;20411;-69
2023/06/29 03:15:02;;;;;;;51.20;32.13;;;18.50;46.00;;;;;;5040213;28;20413;-70
2023/06/29 03:17:28;;;;;;;50.97;32.65;;;18.50;46.00;;;;;;5048121;28;20812;-69
2023/06/29 03:19:54;;;;;;;49.10;32.43;;;18.50;46.20;;;;;;5047556;28;20405;-69
2023/06/29 03:22:19;;;;;;;50.75;32.78;;;18.50;47.00;;;;;;5051121;28;20408;-69
2023/06/29 03:24:45;;;;;;;47.50;31.93;;;18.50;46.40;;;;;;5047564;28;20854;-69
2023/06/29 03:27:11;;;;;;;51.40;32.58;;;18.50;46.30;;;;;;5039966;28;20404;-69
2023/06/29 03:29:36;;;;;;;49.77;32.93;;;18.50;46.50;;;;;;5047714;28;20794;-69
2023/06/29 03:32:02;;;;;;;46.70;32.58;;;18.50;46.30;;;;;;5039146;28;20463;-70
2023/06/29 03:34:28;;;;;;;45.83;32.20;;;18.50;46.20;;;;;;5048452;28;20471;-69
2023/06/29 03:36:53;;;;;;;47.42;32.95;;;18.50;46.30;;;;;;5044149;28;20481;-70
2023/06/29 03:39:19;;;;;;;48.83;32.93;;;18.50;46.30;;;;;;5065676;28;20411;-70
2023/06/29 03:41:45;;;;;;;47.67;32.38;;;18.50;46.30;;;;;;5048081;28;20982;-69
2023/06/29 03:44:10;;;;;;;50.58;33.65;;;18.50;46.90;;;;;;5044646;28;20425;-69
2023/06/29 03:46:36;;;;;;;47.93;33.10;;;18.50;46.60;;;;;;5048633;28;20527;-69
2023/06/29 03:49:02;;;;;;;46.75;32.58;;;18.50;46.60;;;;;;5048414;28;20770;-70
2023/06/29 03:51:27;;;;;;;48.65;33.13;;;18.50;46.80;;;;;;5047955;28;20402;-70
2023/06/29 03:53:53;;;;;;;50.55;33.15;;;18.60;46.70;;;;;;5048418;28;20516;-70
2023/06/29 03:56:19;;;;;;;46.70;32.03;;;18.50;47.40;;;;;;5044052;28;20409;-69
2023/06/29 03:58:44;;;;;;;47.00;32.28;;;18.50;46.70;;;;;;5055366;28;20972;-69
2023/06/29 04:01:10;;;;;;;47.23;32.60;;;18.50;46.80;;;;;;5047519;28;20421;-70
2023/06/29 04:03:35;;;;;;;45.43;31.90;;;18.60;46.90;;;;;;5066086;28;20821;-69
2023/06/29 04:06:01;;;;;;;46.53;32.60;;;18.60;46.90;;;;;;5047440;28;20406;-70
2023/06/29 04:08:27;;;;;;;47.00;32.90;;;18.60;47.00;;;;;;5065874;28;20434;-70
2023/06/29 04:10:53;;;;;;;48.97;32.13;;;18.60;46.90;;;;;;5047475;28;21177;-70
2023/06/29 04:13:19;;;;;;;42.40;30.70;;;18.60;46.90;;;;;;5064728;28;20530;-69
2023/06/29 04:15:45;;;;;;;45.70;31.27;;;18.70;47.50;;;;;;5069077;28;20427;-69
2023/06/29 04:18:10;;;;;;;47.72;32.10;;;18.70;46.70;;;;;;5034185;28;20511;-70
2023/06/29 04:20:36;;;;;;;45.63;31.60;;;18.70;46.60;;;;;;5045645;28;20411;-70
2023/06/29 04:23:02;;;;;;;44.85;31.08;;;18.70;46.40;;;;;;5042624;28;20407;-69
2023/06/29 04:25:28;;;;;;;46.00;30.65;;;18.80;46.40;;;;;;5047510;28;20407;-70
2023/06/29 04:27:53;;;;;;;41.83;29.20;;;18.80;46.10;;;;;;5047908;28;20404;-70
2023/06/29 04:30:19;;;;;;;42.63;28.80;;;18.80;45.70;;;;;;5047140;28;20471;-69
2023/06/29 04:32:46;;;;;;;46.55;30.00;;;18.80;45.30;;;;;;5047377;28;20445;-70
2023/06/29 04:35:12;;;;;;;44.17;29.77;;;18.80;45.10;;;;;;5040720;28;20408;-70
2023/06/29 04:37:41;;;;;;;41.45;29.63;;;18.80;45.20;;;;;;5040467;28;20498;-70
2023/06/29 04:40:14;;;;;;;41.03;29.60;;;18.90;45.20;;;;;;5047402;28;20417;-70
2023/06/29 04:42:47;;;;;;;41.50;29.00;;;18.90;45.30;;;;;;5048337;28;20411;-69
2023/06/29 04:45:17;;;;;;;42.00;28.98;;;18.90;45.10;;;;;;5068217;28;20439;-69
2023/06/29 04:47:49;;;;;;;38.75;27.83;;;18.90;44.90;;;;;;5033741;28;20422;-70
2023/06/29 04:50:15;;;;;;;37.30;27.05;;;18.90;44.70;;;;;;5045899;28;20406;-69
2023/06/29 04:52:42;;;;;;;44.17;28.08;;;19.00;45.00;;;;;;5046923;28;20412;-70
2023/06/29 04:55:09;;;;;;;37.38;26.70;;;19.00;44.20;;;;;;5043759;28;20535;-70
2023/06/29 04:57:35;;;;;;;37.72;26.75;;;19.00;44.10;;;;;;5047224;28;20854;-70
2023/06/29 05:00:00;;;;;;;36.92;26.35;;;19.10;44.10;;;;;;5044352;28;20406;-71
2023/06/29 05:02:26;;;;;;;35.35;26.10;;;19.10;43.90;;;;;;5036900;28;20787;-70
2023/06/29 05:04:52;;;;;;;38.22;25.20;;;19.20;43.60;;;;;;5044424;28;20437;-70
2023/06/29 05:07:18;;;;;;;35.42;25.15;;;19.20;43.30;;;;;;5046657;28;20406;-70
2023/06/29 05:09:43;;;;;;;35.03;25.87;;;19.30;43.10;;;;;;5044472;28;20932;-70
2023/06/29 05:12:09;;;;;;;32.45;24.25;;;19.30;42.70;;;;;;5037177;28;20429;-70
2023/06/29 05:14:35;;;;;;;35.58;24.80;;;19.40;41.80;;;;;;5052992;28;20514;-70
2023/06/29 05:17:01;;;;;;;33.80;25.33;;;19.40;41.20;;;;;;5046848;28;20409;-68
2023/06/29 05:19:26;;;;;;;33.10;25.20;;;19.50;41.00;;;;;;5018429;28;20922;-68
2023/06/29 05:21:52;;;;;;;35.78;25.45;;;19.50;40.60;;;;;;5039680;28;20441;-69
2023/06/29 05:24:18;;;;;;;36.37;24.97;;;19.60;40.00;;;;;;5040988;28;21068;-69
2023/06/29 05:26:43;;;;;;;33.00;24.35;;;19.70;39.70;;;;;;5042715;28;20919;-69
2023/06/29 05:29:09;;;;;;;33.90;24.00;;;19.80;39.10;;;;;;5037135;28;20420;-69
2023/06/29 05:31:34;;;;;;;32.83;24.13;;;19.90;37.90;;;;;;5045739;28;20409;-70
2023/06/29 05:34:00;;;;;;;32.60;23.77;;;20.00;36.80;;;;;;5044034;28;20438;-69
2023/06/29 05:36:26;;;;;;;31.97;23.07;;;20.10;34.50;;;;;;5039830;28;20782;-69
2023/06/29 05:38:52;;;;;;;32.13;22.95;;;20.10;33.60;;;;;;5040141;28;20449;-69
2023/06/29 05:41:18;;;;;;;34.28;22.88;;;20.10;29.00;;;;;;5067823;28;20454;-70
2023/06/29 05:43:43;;;;;;;32.65;22.38;;;20.20;27.80;;;;;;5046875;28;20486;-69
2023/06/29 05:46:09;;;;;;;29.63;22.27;;;20.20;25.80;;;;;;5056703;28;20406;-70
2023/06/29 05:48:34;;;;;;;29.00;21.07;;;20.30;24.20;;;;;;5050016;28;20445;-69
2023/06/29 05:51:00;;;;;;;27.53;21.00;;;20.30;22.70;;;;;;5063706;28;20404;-70
2023/06/29 05:53:26;;;;;;;27.65;20.60;;;20.30;21.20;;;;;;5061201;28;20502;-70
2023/06/29 05:55:51;;;;;;;27.23;19.53;;;20.30;20.60;;;;;;5045506;28;20413;-70
2023/06/29 05:58:17;;;;;;;29.27;20.07;;;20.30;19.00;;;;;;5050603;28;21216;-69
2023/06/29 06:00:42;;;;;;;26.92;19.42;;;20.30;17.40;;;;;;5043149;28;20414;-70
2023/06/29 06:03:08;;;;;;;26.50;19.57;;;20.30;16.10;;;;;;5044026;28;20520;-70
2023/06/29 06:05:34;;;;;;;27.40;19.70;;;20.30;16.60;;;;;;5050371;28;20408;-69
2023/06/29 06:07:59;;;;;;;28.73;20.45;;;20.40;16.90;;;;;;5065357;28;20400;-70
2023/06/29 06:10:25;;;;;;;27.03;19.03;;;20.40;16.10;;;;;;5049740;28;20817;-70
2023/06/29 06:12:50;;;;;;;27.63;19.30;;;20.40;14.20;;;;;;5043929;28;20452;-70
2023/06/29 06:15:16;;;;;;;28.13;19.08;;;20.40;13.70;;;;;;5036431;28;20422;-70
2023/06/29 06:17:41;;;;;;;30.27;20.63;;;20.50;13.80;;;;;;5071245;28;20396;-70
2023/06/29 06:20:09;;;;;;;26.27;19.33;;;20.60;13.30;;;;;;5052101;28;20405;-70
2023/06/29 06:22:34;;;;;;;28.23;20.08;;;20.60;9.80;;;;;;5052926;28;20404;-70
2023/06/29 06:25:00;;;;;;;27.17;19.40;;;20.70;9.70;;;;;;5052362;28;20416;-70
2023/06/29 06:27:26;;;;;;;26.03;19.20;;;20.80;8.30;;;;;;5067950;28;20769;-70
2023/06/29 06:29:51;;;;;;;28.38;19.73;;;20.90;5.80;;;;;;5049673;28;20460;-70
2023/06/29 06:32:19;;;;;;;26.23;20.30;;;21.00;1.50;;;;;;5027368;28;20843;-70
2023/06/29 06:34:45;;;;;;;26.05;19.73;;;21.10;1.00;;;;;;5050756;28;20935;-70
2023/06/29 06:37:12;;;;;;;28.08;20.23;;;21.10;1.00;;;;;;5071179;28;20492;-70
2023/06/29 06:39:37;;;;;;;28.70;20.27;;;21.10;1.00;;;;;;5049101;28;20405;-69
2023/06/29 06:42:03;;;;;;;26.05;18.77;;;21.20;1.00;;;;;;5050110;28;20440;-70
2023/06/29 06:44:29;;;;;;;28.90;18.93;;;21.20;1.00;;;;;;5069688;28;20400;-70
2023/06/29 06:46:54;;;;;;;27.73;18.80;;;21.20;1.00;;;;;;5036482;28;20403;-70
2023/06/29 06:49:20;;;;;;;25.53;18.10;;;21.20;1.00;;;;;;5052528;28;20445;-70
2023/06/29 06:51:45;;;;;;;26.00;19.10;;;21.20;1.00;;;;;;5070452;28;20397;-70
2023/06/29 06:54:11;;;;;;;26.25;18.42;;;21.30;1.00;;;;;;5050947;28;20429;-70
2023/06/29 06:56:37;;;;;;;24.33;18.23;;;21.30;1.00;;;;;;5070682;28;20815;-70
2023/06/29 06:59:04;;;;;;;24.58;18.08;;;21.30;1.00;;;;;;5051747;28;20442;-70
2023/06/29 07:01:29;;;;;;;27.05;17.05;;;21.40;1.00;;;;;;5052080;28;20419;-70
2023/06/29 07:03:55;;;;;;;23.55;17.98;;;21.40;1.00;;;;;;5051409;28;20451;-70
2023/06/29 07:06:20;;;;;;;23.60;17.15;;;21.40;1.00;;;;;;5036308;28;20498;-70
2023/06/29 07:08:46;;;;;;;25.67;17.63;;;21.50;1.00;;;;;;5050452;28;20909;-70
2023/06/29 07:11:12;;;;;;;25.60;17.88;;;21.50;1.00;;;;;;5048378;28;20420;-70
2023/06/29 07:13:37;;;;;;;24.47;18.37;;;21.50;1.00;;;;;;5067804;28;20435;-70
2023/06/29 07:16:05;;;;;;;26.07;17.50;;;21.40;1.00;;;;;;5037447;28;20413;-70
2023/06/29 07:18:33;;;;;;;24.17;17.38;;;21.40;1.00;;;;;;5050441;28;20401;-70
2023/06/29 07:20:59;;;;;;;24.02;18.10;;;21.40;1.00;;;;;;5070155;28;20400;-70
2023/06/29 07:23:25;;;;;;;25.93;17.67;;;21.40;1.00;;;;;;5069378;28;20404;-70
2023/06/29 07:25:51;;;;;;;26.80;17.33;;;21.50;1.00;;;;;;5049313;28;20422;-70
2023/06/29 07:28:16;;;;;;;26.60;17.63;;;21.50;1.00;;;;;;5065471;28;20428;-70
2023/06/29 07:30:42;;;;;;;23.63;18.00;;;21.50;1.00;;;;;;5048623;28;20733;-70
2023/06/29 07:33:08;;;;;;;25.83;18.42;;;21.50;1.00;;;;;;5049044;28;20427;-70
2023/06/29 07:35:34;;;;;;;25.50;18.20;;;21.50;1.00;;;;;;5041590;28;20402;-70
2023/06/29 07:37:59;;;;;;;26.00;17.77;;;21.50;1.00;;;;;;5051666;28;20400;-70
2023/06/29 07:40:25;;;;;;;25.60;17.88;;;21.50;1.00;;;;;;5042298;28;20406;-70
2023/06/29 07:42:50;;;;;;;25.60;17.90;;;21.50;1.00;;;;;;5050676;28;20403;-70
2023/06/29 07:45:16;;;;;;;24.85;17.52;;;21.50;1.00;;;;;;5048432;28;20406;-70
2023/06/29 07:47:42;;;;;;;25.33;17.80;;;21.60;1.00;;;;;;5068787;28;20800;-70
2023/06/29 07:50:08;;;;;;;27.70;18.05;;;21.60;1.00;;;;;;5069610;28;20893;-71
2023/06/29 07:52:34;;;;;;;23.38;17.65;;;21.60;1.00;;;;;;5051565;28;20423;-70
2023/06/29 07:54:59;;;;;;;25.10;17.58;;;21.50;1.00;;;;;;5069640;28;20427;-70
2023/06/29 07:57:25;;;;;;;25.40;18.83;;;21.50;1.00;;;;;;5048511;28;20425;-70
2023/06/29 07:59:50;;;;;;;24.40;17.17;;;21.50;1.00;;;;;;5048026;28;20406;-70
2023/06/29 08:02:16;;;;;;;24.00;17.30;;;21.40;1.00;;;;;;5050704;28;20415;-70
2023/06/29 08:04:42;;;;;;;23.57;17.27;;;21.40;1.00;;;;;;5048551;28;20410;-70
2023/06/29 08:07:08;;;;;;;22.27;17.67;;;21.40;1.00;;;;;;5023116;28;20959;-70
2023/06/29 08:09:33;;;;;;;23.00;17.48;;;21.40;1.00;;;;;;5047675;28;20960;-70
2023/06/29 08:11:59;;;;;;;24.23;17.67;;;21.40;1.00;;;;;;5068533;28;21145;-70
2023/06/29 08:14:24;;;;;;;25.43;17.77;;;21.40;1.00;;;;;;5047792;28;20542;-70
2023/06/29 08:16:50;;;;;;;26.73;18.43;;;21.40;1.00;;;;;;5049835;28;20823;-70
2023/06/29 08:19:16;;;;;;;24.65;17.63;;;21.40;1.00;;;;;;5047233;28;20401;-70
2023/06/29 08:21:41;;;;;;;27.13;18.50;;;21.40;1.00;;;;;;5050460;28;20414;-70
2023/06/29 08:24:08;;;;;;;27.63;17.87;;;21.50;1.00;;;;;;5047577;28;20415;-70
2023/06/29 08:26:34;;;;;;;26.98;18.83;;;21.50;1.00;;;;;;5047406;28;20406;-70
2023/06/29 08:29:00;;;;;;;24.98;18.17;;;21.50;1.00;;;;;;5047855;28;20417;-70
2023/06/29 08:31:26;;;;;;;26.02;18.33;;;21.50;1.00;;;;;;5049473;28;20904;-70
2023/06/29 08:33:52;;;;;;;26.77;18.60;;;21.50;1.00;;;;;;5047633;28;20433;-70
2023/06/29 08:36:17;;;;;;;26.87;18.37;;;21.50;1.00;;;;;;5049731;28;20423;-70
2023/06/29 08:38:48;;;;;;;31.65;20.27;;;21.50;1.00;;;;;;5043870;28;20424;-70
2023/06/29 08:41:14;;;;;;;26.10;19.10;;;21.60;1.00;;;;;;5049993;28;20991;-70
2023/06/29 08:43:41;;;;;;;29.00;19.15;;;21.60;1.00;;;;;;5068731;28;20399;-70
2023/06/29 08:46:07;;;;;;;27.02;18.75;;;21.50;1.00;;;;;;5067793;28;20400;-70
2023/06/29 08:48:34;;;;;;;29.40;19.48;;;21.60;1.00;;;;;;5047443;28;20420;-70
2023/06/29 08:51:03;;;;;;;28.10;19.63;;;21.70;1.00;;;;;;5033929;28;20461;-70
2023/06/29 08:53:29;;;;;;;26.77;18.58;;;21.80;1.00;;;;;;5047878;28;20437;-70
2023/06/29 08:55:56;;;;;;;25.25;18.40;;;21.80;1.00;;;;;;5068487;28;20399;-70
2023/06/29 08:58:22;;;;;;;27.13;19.45;;;21.80;1.00;;;;;;5067496;28;20916;-70
2023/06/29 09:00:49;;;;;;;26.88;19.02;;;21.90;1.00;;;;;;5046869;28;20447;-70
2023/06/29 09:03:16;;;;;;;26.15;19.15;;;21.90;1.00;;;;;;5045203;28;20499;-70
2023/06/29 09:05:45;;;;;;;27.35;20.00;;;22.00;1.00;;;;;;5049513;28;20409;-70
2023/06/29 09:08:11;;;;;;;27.95;19.23;;;22.10;1.00;;;;;;5033116;28;20761;-70
2023/06/29 09:10:39;;;;;;;27.30;19.52;;;22.10;1.00;;;;;;5050221;28;20400;-70
2023/06/29 09:13:05;;;;;;;26.90;19.08;;;22.30;1.00;;;;;;5030090;28;20491;-70
2023/06/29 09:15:31;;;;;;;26.02;19.42;;;22.30;1.00;;;;;;5030345;28;20417;-70
2023/06/29 09:17:57;;;;;;;25.40;18.80;;;22.40;1.00;;;;;;5048081;28;20405;-70
2023/06/29 09:20:25;;;;;;;29.60;19.87;;;22.50;1.00;;;;;;5026252;28;20499;-71
2023/06/29 09:22:51;;;;;;;26.95;19.42;;;22.60;1.00;;;;;;5026644;28;20915;-70
2023/06/29 09:25:18;;;;;;;25.23;18.60;;;22.70;99.90;;;;;;5022059;28;20492;-70
2023/06/29 09:27:44;;;;;;;28.55;19.20;;;22.80;99.90;;;;;;5026892;28;20410;-70
2023/06/29 09:30:17;;;;;;;25.00;18.57;;;23.00;99.90;;;;;;5026392;28;20406;-70
2023/06/29 09:32:43;;;;;;;26.38;18.70;;;23.20;99.90;;;;;;5030114;28;20788;-70
2023/06/29 09:35:09;;;;;;;24.87;18.47;;;23.30;99.90;;;;;;5047802;28;20405;-70
2023/06/29 09:37:36;;;;;;;25.95;18.98;;;23.40;99.90;;;;;;5043248;28;20421;-70
2023/06/29 09:40:11;;;;;;;27.88;19.35;;;23.40;99.90;;;;;;5043889;28;20405;-70
2023/06/29 09:42:37;;;;;;;25.17;18.80;;;23.50;99.90;;;;;;5026704;28;20506;-70
2023/06/29 09:45:14;;;;;;;27.20;19.65;;;23.50;99.90;;;;;;5009563;28;20469;-71
2023/06/29 09:47:48;;;;;;;27.55;19.20;;;23.50;99.90;;;;;;5029442;28;20926;-70
2023/06/29 09:50:19;;;;;;;28.47;18.90;;;23.50;99.90;;;;;;5047265;28;20401;-70
2023/06/29 09:52:51;;;;;;;24.77;17.77;;;23.50;99.90;;;;;;5013261;28;20596;-70
2023/06/29 09:55:18;;;;;;;25.83;19.00;;;23.60;99.90;;;;;;5028374;28;20403;-70
2023/06/29 09:57:50;;;;;;;27.35;19.23;;;23.60;99.90;;;;;;5026215;28;20481;-70
2023/06/29 10:00:16;;;;;;;25.07;18.90;;;23.60;99.90;;;;;;5026367;28;20428;-70
2023/06/29 10:02:42;;;;;;;25.58;19.05;;;23.70;99.90;;;;;;5025166;28;20407;-70
2023/06/29 10:05:08;;;;;;;26.23;18.48;;;23.70;99.90;;;;;;5026408;28;20495;-70
2023/06/29 10:07:36;;;;;;;25.93;18.90;;;23.90;99.90;;;;;;5047746;28;20807;-71
2023/06/29 10:10:04;;;;;;;26.38;18.75;;;23.90;95.00;;;;;;5012980;28;20424;-70
2023/06/29 10:12:31;;;;;;;25.63;18.63;;;23.90;94.70;;;;;;5033790;28;20481;-70
2023/06/29 10:15:05;;;;;;;27.88;18.83;;;24.00;84.70;;;;;;5043841;28;20807;-70
2023/06/29 10:17:49;;;;;;;24.98;18.20;;;24.00;1.00;;;;;;5037546;28;20442;-70
2023/06/29 10:20:17;;;;;;;25.55;18.20;;;24.00;1.00;;;;;;5044589;28;20943;-70
2023/06/29 10:22:44;;;;;;;28.15;19.75;;;24.00;1.00;;;;;;5047776;28;21639;-70
2023/06/29 10:25:14;;;;;;;26.73;19.55;;;24.00;1.00;;;;;;5044027;28;20905;-70
2023/06/29 10:27:41;;;;;;;24.70;18.70;;;23.90;1.00;;;;;;5036410;28;20947;-70
2023/06/29 10:30:07;;;;;;;27.33;19.30;;;23.90;1.00;;;;;;5047350;28;20441;-70
2023/06/29 10:32:33;;;;;;;24.77;18.90;;;23.90;1.00;;;;;;5044073;28;20897;-70
2023/06/29 10:35:19;;;;;;;23.08;18.10;;;23.80;99.90;;;;;;5039283;28;20481;-70
2023/06/29 10:37:50;;;;;;;27.67;18.80;;;23.80;99.90;;;;;;5040868;28;20457;-70
2023/06/29 10:40:25;;;;;;;24.63;18.33;;;23.70;99.90;;;;;;5042400;28;20415;-70
2023/06/29 10:42:55;;;;;;;24.25;18.77;;;23.50;99.90;;;;;;5045455;28;20912;-70
2023/06/29 10:45:21;;;;;;;26.92;18.67;;;23.40;99.90;;;;;;5042258;28;20403;-70
2023/06/29 10:47:56;;;;;;;28.07;20.37;;;23.20;99.90;;;;;;5044663;28;20422;-70
2023/06/29 10:50:28;;;;;;;29.63;22.23;;;23.10;99.90;;;;;;5050132;28;20493;-70
2023/06/29 10:52:59;;;;;;;27.33;21.73;;;22.90;1.00;;;;;;5049493;28;20982;-70
2023/06/29 10:55:28;;;;;;;30.48;22.48;;;22.80;1.00;;;;;;5045762;28;20930;-70
2023/06/29 10:57:55;;;;;;;30.95;23.02;;;22.70;28.20;;;;;;5038456;28;20913;-70
2023/06/29 11:00:25;;;;;;;30.17;22.50;;;22.60;85.00;;;;;;5028859;28;21098;-70
2023/06/29 11:02:52;;;;;;;28.60;22.60;;;22.60;99.90;;;;;;5045882;28;20872;-70
2023/06/29 11:05:19;;;;;;;30.35;23.38;;;22.60;99.90;;;;;;5042718;28;20414;-70
2023/06/29 11:07:48;;;;;;;28.20;22.25;;;22.50;99.90;;;;;;5047538;28;20946;-70
2023/06/29 11:10:14;;;;;;;28.33;22.58;;;22.50;99.90;;;;;;5045243;28;21112;-70
2023/06/29 11:12:40;;;;;;;30.65;22.45;;;22.50;99.90;;;;;;5050468;28;20412;-70
2023/06/29 11:15:13;;;;;;;29.85;22.67;;;22.40;99.90;;;;;;5065556;28;20452;-70
2023/06/29 11:17:39;;;;;;;30.20;22.67;;;22.40;99.90;;;;;;5051947;28;20408;-70
2023/06/29 11:20:06;;;;;;;29.40;22.77;;;22.40;99.90;;;;;;5041424;28;20409;-70
2023/06/29 11:22:33;;;;;;;31.60;23.33;;;22.40;99.90;;;;;;5051842;28;20418;-70
2023/06/29 11:24:58;;;;;;;32.42;24.27;;;22.30;99.90;;;;;;5069440;28;20392;-70
2023/06/29 11:27:24;;;;;;;32.80;23.98;;;22.30;99.90;;;;;;5066588;28;20450;-70
2023/06/29 11:29:54;;;;;;;34.87;24.73;;;22.30;99.90;;;;;;5038236;28;20954;-70
2023/06/29 11:32:19;;;;;;;30.90;23.85;;;22.30;99.90;;;;;;5051589;28;20412;-70
2023/06/29 11:34:45;;;;;;;33.90;25.60;;;22.30;99.90;;;;;;5051365;28;20523;-70
2023/06/29 11:37:11;;;;;;;33.03;25.35;;;22.40;99.90;;;;;;5048335;28;20448;-70
2023/06/29 11:39:36;;;;;;;33.58;25.00;;;22.40;99.90;;;;;;5051530;28;20489;-70
2023/06/29 11:42:08;;;;;;;32.97;24.93;;;22.50;99.90;;;;;;5041353;28;20401;-70
2023/06/29 11:44:34;;;;;;;33.17;24.50;;;22.50;99.90;;;;;;5069302;28;20403;-70
2023/06/29 11:47:00;;;;;;;31.88;24.73;;;22.60;99.90;;;;;;5034932;28;20407;-70
2023/06/29 11:49:26;;;;;;;28.67;23.23;;;22.60;99.90;;;;;;5050769;28;20449;-70
2023/06/29 11:51:52;;;;;;;27.20;21.67;;;22.70;99.90;;;;;;5048063;28;20782;-70
2023/06/29 11:54:18;;;;;;;27.65;21.65;;;22.70;99.90;;;;;;5047567;28;20433;-70
2023/06/29 11:56:43;;;;;;;27.45;20.95;;;22.70;54.10;;;;;;5063347;28;20395;-70
2023/06/29 11:59:12;;;;;;;27.93;21.80;;;22.70;1.00;;;;;;5050291;28;20835;-70
2023/06/29 12:01:38;;;;;;;31.10;21.10;;;22.60;1.00;;;;;;5048290;28;20421;-70
2023/06/29 12:04:05;;;;;;;30.48;22.52;;;22.60;1.00;;;;;;5065305;28;20401;-70
2023/06/29 12:06:32;;;;;;;30.75;21.70;;;22.60;1.00;;;;;;5043769;28;20489;-70
2023/06/29 12:08:58;;;;;;;30.67;21.90;;;22.60;1.00;;;;;;5038825;28;20409;-70
2023/06/29 12:11:25;;;;;;;28.87;22.07;;;22.60;1.00;;;;;;5063496;28;20918;-70
2023/06/29 12:13:52;;;;;;;27.90;21.80;;;22.60;1.00;;;;;;5068838;28;20436;-70
2023/06/29 12:16:20;;;;;;;29.30;22.73;;;22.70;1.00;;;;;;5049372;28;20796;-70
2023/06/29 12:18:47;;;;;;;29.15;22.17;;;22.70;1.00;;;;;;5047156;28;20422;-70
2023/06/29 12:21:19;;;;;;;28.98;22.73;;;22.80;1.00;;;;;;5046197;28;20411;-70
2023/06/29 12:23:44;;;;;;;30.00;22.80;;;22.80;1.00;;;;;;5046628;28;20402;-70
2023/06/29 12:26:11;;;;;;;31.90;22.97;;;22.90;99.90;;;;;;5044927;28;20631;-70
2023/06/29 12:28:37;;;;;;;27.80;22.13;;;22.90;99.90;;;;;;5046596;28;20760;-70